Time;durP1;ratioP1;P1;durP2;ratioP2;P2;SDS_P1;SDS_P2;PMS_P1;PMS_P2;Temp;Humidity;BMP_temperature;BMP_pressure;BME280_temperature;BME280_humidity;BME280_pressure;Samples;Min_cycle;Max_cycle;Signal;HPM_P1;HPM_P2
2022/02/13 00:02:58;;;;;;;10.07;8.53;;;2.90;99.20;;;;;;10475093;28;20303;-79
2022/02/13 00:08:00;;;;;;;8.90;8.07;;;2.90;99.40;;;;;;10492467;28;20196;-79
2022/02/13 00:13:04;;;;;;;8.93;8.13;;;2.90;99.90;;;;;;10509103;28;20233;-78
2022/02/13 00:18:06;;;;;;;9.90;9.00;;;3.00;99.90;;;;;;10508277;28;20652;-78
2022/02/13 00:23:09;;;;;;;11.23;9.60;;;3.10;99.90;;;;;;10490410;28;20581;-79
2022/02/13 00:28:13;;;;;;;10.13;9.13;;;3.10;99.90;;;;;;10490258;28;20220;-79
2022/02/13 00:33:15;;;;;;;11.20;10.17;;;3.10;99.90;;;;;;10502900;28;20246;-79
2022/02/13 00:38:17;;;;;;;13.47;9.10;;;3.10;98.70;;;;;;10508615;28;20663;-79
2022/02/13 00:43:21;;;;;;;10.40;9.40;;;3.10;99.00;;;;;;10489904;28;20751;-79
2022/02/13 00:48:23;;;;;;;9.50;8.60;;;3.00;99.20;;;;;;10489388;28;20211;-79
2022/02/13 00:53:26;;;;;;;10.27;9.27;;;3.00;99.10;;;;;;10507921;28;20564;-79
2022/02/13 00:58:30;;;;;;;10.03;9.03;;;2.90;99.50;;;;;;10489622;28;20232;-79
2022/02/13 01:03:32;;;;;;;12.33;9.63;;;2.90;99.40;;;;;;10471758;28;20299;-79
2022/02/13 01:08:35;;;;;;;11.00;9.93;;;2.90;99.90;;;;;;10505848;28;20204;-79
2022/02/13 01:13:38;;;;;;;11.20;9.90;;;2.90;99.60;;;;;;10487858;28;20330;-79
2022/02/13 01:18:40;;;;;;;17.17;12.33;;;2.90;99.20;;;;;;10486697;28;20283;-79
2022/02/13 01:23:43;;;;;;;10.60;9.67;;;2.90;99.30;;;;;;10487823;28;20266;-79
2022/02/13 01:28:50;;;;;;;12.57;11.23;;;2.90;99.90;;;;;;10487856;28;20197;-79
2022/02/13 01:33:52;;;;;;;10.10;9.00;;;3.00;99.90;;;;;;10488128;28;20228;-79
2022/02/13 01:38:54;;;;;;;10.70;9.60;;;3.00;99.90;;;;;;10481301;28;20203;-79
2022/02/13 01:43:58;;;;;;;11.17;9.87;;;3.00;99.30;;;;;;10487573;28;20311;-79
2022/02/13 01:49:00;;;;;;;10.30;9.10;;;3.00;98.90;;;;;;10472811;28;20193;-78
2022/02/13 01:54:02;;;;;;;10.20;9.30;;;3.00;99.00;;;;;;10487742;28;20331;-79
2022/02/13 01:59:07;;;;;;;10.47;9.37;;;2.90;98.70;;;;;;10468131;28;20196;-79
2022/02/13 02:04:09;;;;;;;10.77;9.77;;;2.90;98.90;;;;;;10502941;28;20240;-79
2022/02/13 02:09:11;;;;;;;10.43;9.40;;;2.90;99.50;;;;;;10468179;28;20287;-79
2022/02/13 02:14:14;;;;;;;11.20;10.07;;;2.90;99.70;;;;;;10480521;28;20224;-79
2022/02/13 02:19:17;;;;;;;10.67;9.57;;;2.90;99.60;;;;;;10479981;28;20197;-79
2022/02/13 02:24:20;;;;;;;10.17;9.20;;;2.90;99.90;;;;;;10497541;28;20295;-78
2022/02/13 02:29:22;;;;;;;9.27;8.47;;;2.90;99.60;;;;;;10480748;28;20231;-80
2022/02/13 02:34:25;;;;;;;10.00;8.90;;;2.90;99.30;;;;;;10505440;28;20235;-79
2022/02/13 02:39:28;;;;;;;8.90;8.10;;;2.90;99.00;;;;;;10505536;28;20197;-79
2022/02/13 02:44:32;;;;;;;9.90;9.00;;;2.80;99.90;;;;;;10506797;28;20769;-79
2022/02/13 02:49:34;;;;;;;10.43;8.73;;;2.80;99.70;;;;;;10506448;28;20201;-79
2022/02/13 02:54:37;;;;;;;9.90;8.97;;;2.80;99.90;;;;;;10488579;28;20680;-79
2022/02/13 02:59:40;;;;;;;9.53;8.63;;;2.80;99.90;;;;;;10506958;28;20227;-79
2022/02/13 03:04:42;;;;;;;10.10;9.10;;;2.90;99.90;;;;;;10488185;28;20251;-79
2022/02/13 03:09:46;;;;;;;10.47;9.23;;;2.90;99.90;;;;;;10503558;28;20222;-79
2022/02/13 03:14:48;;;;;;;9.77;8.80;;;3.10;99.90;;;;;;10484097;28;20335;-78
2022/02/13 03:19:50;;;;;;;9.70;8.80;;;3.30;99.90;;;;;;10505449;28;20193;-79
2022/02/13 03:24:58;;;;;;;9.37;8.47;;;3.30;99.90;;;;;;10505823;28;20185;-77
2022/02/13 03:30:00;;;;;;;10.53;9.00;;;3.50;99.90;;;;;;10497216;28;20583;-78
2022/02/13 03:35:02;;;;;;;10.10;9.20;;;3.60;99.90;;;;;;10510826;28;20561;-79
2022/02/13 03:40:07;;;;;;;10.70;9.10;;;3.70;99.90;;;;;;10502548;28;20204;-79
2022/02/13 03:45:10;;;;;;;10.10;9.07;;;3.80;99.90;;;;;;10486424;28;20204;-79
2022/02/13 03:50:13;;;;;;;11.33;9.30;;;3.70;99.90;;;;;;10503415;28;20227;-79
2022/02/13 03:55:16;;;;;;;8.90;8.10;;;3.80;99.60;;;;;;10484768;28;20197;-79
2022/02/13 04:00:19;;;;;;;11.30;8.93;;;3.80;99.80;;;;;;10502423;28;20232;-78
2022/02/13 04:05:21;;;;;;;9.23;8.43;;;3.80;99.90;;;;;;10477690;28;20279;-78
2022/02/13 04:10:24;;;;;;;10.10;8.60;;;3.80;99.90;;;;;;10501374;28;20644;-79
2022/02/13 04:15:26;;;;;;;10.03;9.03;;;3.80;99.90;;;;;;10482891;28;20203;-79
2022/02/13 04:20:29;;;;;;;10.43;7.60;;;3.80;99.50;;;;;;10466456;28;20212;-78
2022/02/13 04:25:32;;;;;;;9.77;8.77;;;3.70;99.90;;;;;;10482130;28;20210;-79
2022/02/13 04:30:34;;;;;;;8.87;7.97;;;3.70;99.90;;;;;;10500313;28;20220;-78
2022/02/13 04:35:38;;;;;;;9.70;8.60;;;3.60;99.80;;;;;;10468164;28;20200;-79
2022/02/13 04:40:41;;;;;;;10.20;9.03;;;3.60;99.90;;;;;;10485194;28;20247;-79
2022/02/13 04:45:43;;;;;;;14.23;12.77;;;3.50;99.90;;;;;;10499801;28;20204;-79
2022/02/13 04:50:46;;;;;;;11.67;10.47;;;3.50;99.90;;;;;;10478867;28;20583;-79
2022/02/13 04:55:50;;;;;;;12.90;10.50;;;3.50;99.90;;;;;;10500851;28;20224;-78
2022/02/13 05:00:52;;;;;;;12.30;11.10;;;3.50;99.90;;;;;;10484958;28;20220;-79
2022/02/13 05:05:54;;;;;;;9.90;9.00;;;3.50;99.90;;;;;;10483937;28;20206;-79
2022/02/13 05:10:58;;;;;;;11.07;9.97;;;3.40;99.90;;;;;;10483765;28;20213;-79
2022/02/13 05:16:00;;;;;;;20.47;17.27;;;3.30;99.90;;;;;;10487953;28;20200;-79
2022/02/13 05:21:02;;;;;;;17.00;15.03;;;3.30;99.90;;;;;;10482812;28;20295;-79
2022/02/13 05:26:05;;;;;;;13.70;12.30;;;3.20;99.90;;;;;;10485258;28;20603;-79
2022/02/13 05:31:09;;;;;;;17.77;13.00;;;3.20;99.90;;;;;;10506484;28;20220;-79
2022/02/13 05:36:11;;;;;;;13.53;12.03;;;3.20;99.90;;;;;;10507051;28;20228;-79
2022/02/13 05:41:15;;;;;;;14.93;11.37;;;3.20;99.90;;;;;;10504239;28;20798;-78
2022/02/13 05:46:17;;;;;;;12.30;11.10;;;3.20;99.90;;;;;;10485122;28;20206;-78
2022/02/13 05:51:19;;;;;;;13.53;11.87;;;3.30;99.90;;;;;;10504197;28;20224;-78
2022/02/13 05:56:23;;;;;;;11.83;10.70;;;3.20;99.90;;;;;;10502139;28;20240;-78
2022/02/13 06:01:25;;;;;;;11.33;10.30;;;3.20;99.90;;;;;;10486067;28;20224;-79
2022/02/13 06:06:27;;;;;;;10.33;8.97;;;3.20;99.90;;;;;;10509118;28;20196;-78
2022/02/13 06:11:30;;;;;;;12.77;10.03;;;3.30;99.90;;;;;;10477703;28;20308;-79
2022/02/13 06:16:32;;;;;;;15.70;14.10;;;3.30;99.90;;;;;;10495144;28;20199;-79
2022/02/13 06:21:35;;;;;;;12.00;10.80;;;3.30;99.90;;;;;;10513420;28;20490;-79
2022/02/13 06:26:39;;;;;;;9.60;8.60;;;3.30;99.90;;;;;;10513170;28;20204;-79
2022/02/13 06:31:42;;;;;;;8.30;7.50;;;3.30;99.90;;;;;;10514648;28;20204;-79
2022/02/13 06:36:44;;;;;;;9.47;7.20;;;3.40;99.90;;;;;;10479803;28;20299;-79
2022/02/13 06:41:47;;;;;;;7.97;7.17;;;3.40;99.90;;;;;;10513939;28;20711;-78
2022/02/13 06:46:49;;;;;;;7.17;6.47;;;3.60;99.90;;;;;;10512579;28;20579;-78
2022/02/13 06:51:51;;;;;;;12.40;9.43;;;3.70;99.90;;;;;;10511890;28;20703;-79
2022/02/13 06:56:55;;;;;;;9.13;7.63;;;3.90;99.90;;;;;;10512765;28;20200;-79
2022/02/13 07:01:57;;;;;;;7.93;7.13;;;4.00;99.90;;;;;;10507004;28;20212;-79
2022/02/13 07:07:00;;;;;;;7.87;7.00;;;4.20;99.90;;;;;;10509487;28;20247;-79
2022/02/13 07:12:08;;;;;;;7.87;6.00;;;4.30;99.90;;;;;;10501521;28;20600;-78
2022/02/13 07:17:11;;;;;;;7.90;6.90;;;4.40;99.90;;;;;;10504457;28;20641;-79
2022/02/13 07:22:13;;;;;;;7.10;6.40;;;4.60;99.90;;;;;;10505794;28;20224;-80
2022/02/13 07:27:16;;;;;;;8.80;7.60;;;4.60;99.90;;;;;;10497803;28;20634;-79
2022/02/13 07:32:18;;;;;;;7.80;7.00;;;4.70;99.90;;;;;;10485742;28;20216;-82
2022/02/13 07:37:20;;;;;;;8.63;7.47;;;4.80;99.90;;;;;;10489920;28;20278;-79
2022/02/13 07:42:24;;;;;;;9.90;7.20;;;4.80;99.90;;;;;;10507982;28;20596;-82
2022/02/13 07:47:27;;;;;;;7.53;6.83;;;4.90;99.90;;;;;;10490790;28;20196;-81
2022/02/13 07:52:30;;;;;;;7.07;6.10;;;5.00;99.90;;;;;;10500359;28;20220;-81
2022/02/13 07:57:33;;;;;;;7.37;6.67;;;5.00;99.90;;;;;;10518550;28;20196;-81
2022/02/13 08:02:36;;;;;;;6.77;6.17;;;5.20;99.90;;;;;;10496431;28;20235;-82
2022/02/13 08:07:44;;;;;;;10.73;6.40;;;5.30;99.90;;;;;;10518225;28;20691;-81
2022/02/13 08:12:48;;;;;;;5.90;5.40;;;5.40;99.90;;;;;;10483167;28;20240;-81
2022/02/13 08:17:50;;;;;;;8.43;6.27;;;5.50;99.90;;;;;;10478198;28;20201;-81
2022/02/13 08:22:52;;;;;;;10.13;6.10;;;5.60;99.90;;;;;;10492119;28;20217;-80
2022/02/13 08:27:56;;;;;;;8.17;6.17;;;5.80;99.60;;;;;;10475408;28;20268;-81
2022/02/13 08:32:58;;;;;;;9.17;5.83;;;5.90;98.90;;;;;;10475731;28;20228;-81
2022/02/13 08:38:01;;;;;;;7.83;6.03;;;6.10;99.50;;;;;;10493936;28;20212;-82
2022/02/13 08:43:06;;;;;;;6.07;5.50;;;6.20;99.40;;;;;;10494162;28;20224;-81
2022/02/13 08:48:08;;;;;;;7.27;5.80;;;6.30;99.70;;;;;;10493600;28;20339;-81
2022/02/13 08:53:10;;;;;;;12.53;6.37;;;6.50;99.50;;;;;;10480093;28;20235;-81
2022/02/13 08:58:14;;;;;;;8.57;6.17;;;6.60;99.40;;;;;;10478768;28;20632;-82
2022/02/13 09:03:16;;;;;;;8.40;7.00;;;6.90;99.20;;;;;;10495878;28;20220;-82
2022/02/13 09:08:18;;;;;;;7.20;6.50;;;7.10;99.40;;;;;;10519432;28;20200;-83
2022/02/13 09:13:22;;;;;;;7.07;6.23;;;7.30;98.60;;;;;;10506710;28;20219;-82
2022/02/13 09:18:24;;;;;;;11.93;6.60;;;7.50;99.30;;;;;;10506030;28;20201;-83
2022/02/13 09:23:26;;;;;;;7.10;5.90;;;7.70;99.20;;;;;;10483532;28;20287;-83
2022/02/13 09:28:30;;;;;;;9.30;7.63;;;7.80;99.50;;;;;;10485502;28;20201;-83
2022/02/13 09:33:32;;;;;;;8.13;6.30;;;7.90;99.00;;;;;;10484757;28;20242;-83
2022/02/13 09:38:34;;;;;;;10.43;6.53;;;8.10;99.10;;;;;;10478325;28;20223;-83
2022/02/13 09:43:37;;;;;;;11.43;6.97;;;8.30;99.00;;;;;;10477021;28;20228;-81
2022/02/13 09:48:40;;;;;;;8.30;6.40;;;8.50;98.80;;;;;;10502019;28;20486;-82
2022/02/13 09:53:42;;;;;;;7.77;6.97;;;8.60;98.00;;;;;;10482832;28;20719;-82
2022/02/13 09:58:45;;;;;;;7.37;6.67;;;8.70;97.50;;;;;;10467499;28;20235;-81
2022/02/13 10:03:49;;;;;;;10.67;6.97;;;8.90;97.40;;;;;;10467136;28;20600;-82
2022/02/13 10:08:52;;;;;;;8.80;7.07;;;9.00;96.60;;;;;;10489176;28;20201;-81
2022/02/13 10:13:58;;;;;;;9.50;7.30;;;9.00;96.60;;;;;;10501787;28;20228;-82
2022/02/13 10:19:02;;;;;;;9.60;7.10;;;9.00;97.00;;;;;;10479850;28;20201;-82
2022/02/13 10:24:24;;;;;;;14.07;6.97;;;8.90;96.20;;;;;;10484544;28;20238;-82
2022/02/13 10:29:30;;;;;;;7.50;6.77;;;8.90;97.20;;;;;;10458481;28;20704;-82
2022/02/13 10:34:32;;;;;;;9.53;6.60;;;8.90;97.10;;;;;;10467076;28;20228;-82
2022/02/13 10:39:45;;;;;;;7.57;6.87;;;8.90;96.80;;;;;;10468891;28;20677;-82
2022/02/13 10:44:49;;;;;;;12.40;7.60;;;9.00;95.50;;;;;;10482161;28;20256;-80
2022/02/13 10:49:52;;;;;;;10.33;7.37;;;8.90;97.20;;;;;;10510113;28;20203;-80
2022/02/13 10:54:55;;;;;;;7.83;7.03;;;8.90;97.00;;;;;;10522707;28;20224;-83
2022/02/13 10:59:58;;;;;;;6.93;6.23;;;9.00;95.50;;;;;;10468183;28;20292;-84
2022/02/13 11:05:02;;;;;;;8.37;7.13;;;9.00;96.50;;;;;;10485905;28;20740;-84
2022/02/13 11:10:09;;;;;;;7.50;6.10;;;9.00;96.50;;;;;;10467319;28;20291;-85
2022/02/13 11:15:17;;;;;;;8.23;6.47;;;9.00;96.40;;;;;;10491634;28;20232;-85
2022/02/13 11:20:20;;;;;;;8.37;6.80;;;9.10;96.60;;;;;;10467689;28;20324;-86
2022/02/13 11:25:51;;;;;;;8.80;7.40;;;9.00;96.70;;;;;;10483127;28;20668;-85
2022/02/13 11:30:57;;;;;;;9.40;7.43;;;9.10;96.10;;;;;;10459500;28;20240;-84
2022/02/13 11:36:02;;;;;;;7.97;6.90;;;9.20;96.10;;;;;;10465018;28;20216;-84
2022/02/13 11:41:04;;;;;;;7.20;6.30;;;9.20;97.60;;;;;;10475725;28;20244;-84
2022/02/13 11:46:08;;;;;;;8.43;7.53;;;9.20;96.90;;;;;;10478313;28;20201;-83
2022/02/13 11:51:11;;;;;;;8.07;6.13;;;9.20;97.30;;;;;;10480165;28;20221;-81
2022/02/13 11:56:24;;;;;;;7.27;5.30;;;9.40;94.20;;;;;;10475560;28;20220;-82
2022/02/13 12:01:48;;;;;;;5.90;5.10;;;9.50;93.30;;;;;;10499713;28;20229;-82
2022/02/13 12:06:53;;;;;;;8.37;5.57;;;9.60;92.70;;;;;;10480494;28;20268;-82
2022/02/13 12:11:59;;;;;;;9.70;5.30;;;9.70;93.30;;;;;;10481334;28;20299;-82
2022/02/13 12:17:02;;;;;;;7.50;5.00;;;9.70;92.80;;;;;;10495867;28;20251;-84
2022/02/13 12:22:07;;;;;;;5.57;5.07;;;9.80;92.30;;;;;;10483635;22;20221;-84
2022/02/13 12:27:09;;;;;;;6.10;4.40;;;9.80;91.10;;;;;;10451338;28;20259;-84
2022/02/13 12:32:14;;;;;;;8.07;4.77;;;10.00;89.40;;;;;;10441677;28;20198;-84
2022/02/13 12:37:16;;;;;;;4.80;4.30;;;10.10;90.00;;;;;;10413180;28;20201;-84
2022/02/13 12:42:34;;;;;;;6.43;4.87;;;10.10;90.00;;;;;;10409702;28;20218;-83
2022/02/13 12:47:40;;;;;;;6.10;5.37;;;10.20;88.30;;;;;;10421464;28;20202;-83
2022/02/13 12:52:42;;;;;;;7.17;4.67;;;10.20;88.30;;;;;;10400341;28;20210;-83
2022/02/13 12:57:51;;;;;;;5.60;4.63;;;10.30;88.60;;;;;;10429828;28;20197;-83
2022/02/13 13:02:57;;;;;;;9.17;5.00;;;10.50;88.20;;;;;;10450547;28;20233;-83
2022/02/13 13:08:11;;;;;;;5.53;4.43;;;10.40;90.30;;;;;;10432578;28;20217;-84
2022/02/13 13:13:14;;;;;;;7.30;4.43;;;10.40;89.60;;;;;;10409008;28;20865;-84
2022/02/13 13:18:33;;;;;;;6.10;4.77;;;10.40;88.40;;;;;;10466132;28;20549;-84
2022/02/13 13:23:35;;;;;;;6.30;4.30;;;10.40;88.10;;;;;;10440189;28;20228;-85
2022/02/13 13:28:38;;;;;;;4.73;4.27;;;10.40;89.50;;;;;;10460674;28;20223;-83
2022/02/13 13:33:42;;;;;;;4.70;4.20;;;10.50;90.00;;;;;;10435877;28;20338;-84
2022/02/13 13:38:45;;;;;;;5.67;5.13;;;10.50;88.30;;;;;;10439981;28;20216;-82
2022/02/13 13:43:47;;;;;;;5.60;5.00;;;10.60;88.40;;;;;;10425707;28;20210;-82
2022/02/13 13:48:51;;;;;;;5.07;4.60;;;10.70;87.30;;;;;;10448087;28;20197;-82
2022/02/13 13:53:53;;;;;;;3.97;3.57;;;10.70;86.70;;;;;;10444107;28;20244;-85
2022/02/13 13:58:55;;;;;;;4.60;4.20;;;10.70;87.10;;;;;;10423887;28;20559;-85
2022/02/13 14:03:58;;;;;;;4.50;4.10;;;10.70;86.00;;;;;;10416530;28;20690;-85
2022/02/13 14:09:00;;;;;;;4.77;4.37;;;10.70;86.00;;;;;;10431783;28;20228;-84
2022/02/13 14:14:03;;;;;;;5.57;4.47;;;10.70;86.90;;;;;;10425410;28;20283;-85
2022/02/13 14:19:06;;;;;;;4.23;3.90;;;10.70;88.90;;;;;;10474891;28;20236;-83
2022/02/13 14:24:08;;;;;;;8.47;5.23;;;10.70;89.50;;;;;;10453240;28;20252;-85
2022/02/13 14:29:11;;;;;;;4.90;4.10;;;10.60;91.30;;;;;;10439425;28;20220;-85
2022/02/13 14:34:17;;;;;;;4.50;4.10;;;10.60;86.30;;;;;;10461330;28;20229;-84
2022/02/13 14:39:19;;;;;;;6.20;4.00;;;10.70;85.00;;;;;;10438462;28;20272;-85
2022/02/13 14:44:21;;;;;;;4.57;4.17;;;10.80;84.00;;;;;;10458940;28;20299;-83
2022/02/13 14:49:24;;;;;;;5.43;4.80;;;10.90;84.80;;;;;;10442762;28;20243;-84
2022/02/13 14:54:27;;;;;;;3.90;3.60;;;11.00;83.80;;;;;;10455192;28;20228;-84
2022/02/13 14:59:29;;;;;;;5.73;3.60;;;11.00;85.90;;;;;;10445199;28;20207;-83
2022/02/13 15:04:33;;;;;;;4.53;4.13;;;10.90;90.00;;;;;;10448035;28;20214;-85
2022/02/13 15:09:35;;;;;;;3.40;3.10;;;10.90;87.30;;;;;;10468461;28;20255;-83
2022/02/13 15:14:37;;;;;;;5.53;4.50;;;10.80;85.00;;;;;;10420021;28;20229;-85
2022/02/13 15:19:41;;;;;;;4.07;3.77;;;10.90;85.40;;;;;;10427382;28;20264;-84
2022/02/13 15:24:43;;;;;;;4.23;3.83;;;10.80;88.80;;;;;;10430174;28;20229;-84
2022/02/13 15:29:45;;;;;;;4.53;3.60;;;10.80;87.70;;;;;;10413909;28;20213;-83
2022/02/13 15:34:49;;;;;;;5.40;3.80;;;10.70;85.60;;;;;;10433432;28;20320;-83
2022/02/13 15:39:51;;;;;;;5.93;3.10;;;10.70;84.70;;;;;;10434286;28;20202;-84
2022/02/13 15:44:53;;;;;;;3.80;3.50;;;10.80;89.20;;;;;;10430645;28;20193;-84
2022/02/13 15:49:56;;;;;;;5.33;4.20;;;10.70;87.10;;;;;;10423611;28;20272;-82
2022/02/13 15:54:58;;;;;;;4.60;3.60;;;10.70;88.10;;;;;;10430049;28;20228;-82
2022/02/13 16:00:00;;;;;;;6.00;3.57;;;10.60;87.20;;;;;;10464686;28;20261;-82
2022/02/13 16:05:05;;;;;;;7.03;6.37;;;10.60;88.20;;;;;;10437076;28;20739;-82
2022/02/13 16:10:09;;;;;;;13.83;6.83;;;10.40;89.40;;;;;;10448025;28;20676;-81
2022/02/13 16:15:11;;;;;;;11.10;7.37;;;10.30;90.10;;;;;;10451747;28;20229;-81
2022/02/13 16:20:15;;;;;;;9.43;6.30;;;10.10;90.40;;;;;;10447707;28;20221;-81
2022/02/13 16:25:19;;;;;;;10.10;6.43;;;9.90;91.30;;;;;;10443464;28;20203;-81
2022/02/13 16:30:23;;;;;;;12.33;7.60;;;9.70;91.70;;;;;;10422956;28;20220;-82
2022/02/13 16:35:27;;;;;;;10.23;6.97;;;9.60;92.20;;;;;;10463316;28;20224;-82
2022/02/13 16:40:29;;;;;;;6.77;5.63;;;9.40;92.20;;;;;;10429983;28;20214;-81
2022/02/13 16:45:31;;;;;;;6.93;5.57;;;9.20;92.30;;;;;;10398721;28;20198;-82
2022/02/13 16:50:35;;;;;;;10.83;5.50;;;9.10;92.80;;;;;;10400532;28;20221;-82
2022/02/13 16:55:37;;;;;;;5.43;4.27;;;8.90;93.10;;;;;;10408603;28;20221;-82
2022/02/13 17:00:40;;;;;;;7.63;4.30;;;8.80;92.80;;;;;;10405468;28;20221;-87
2022/02/13 17:05:43;;;;;;;6.23;4.40;;;8.70;92.90;;;;;;10403369;28;20255;-87
2022/02/13 17:10:52;;;;;;;6.13;4.53;;;8.60;93.00;;;;;;10405742;28;20225;-87
2022/02/13 17:15:55;;;;;;;5.93;4.57;;;8.50;93.30;;;;;;10386165;28;20224;-86
2022/02/13 17:21:01;;;;;;;5.90;4.00;;;8.50;93.00;;;;;;10391992;28;20233;-87
2022/02/13 17:26:03;;;;;;;6.67;4.80;;;8.40;92.60;;;;;;10396974;28;20634;-90
2022/02/13 17:31:06;;;;;;;11.00;6.03;;;8.40;92.30;;;;;;10409070;28;20632;-88
2022/02/13 17:36:14;;;;;;;5.97;4.27;;;8.40;91.60;;;;;;10422829;28;20660;-87
2022/02/13 17:41:16;;;;;;;5.60;4.37;;;8.40;89.00;;;;;;10416514;28;20235;-84
2022/02/13 17:46:18;;;;;;;4.83;4.33;;;8.50;89.90;;;;;;10446498;28;20221;-85
2022/02/13 17:51:21;;;;;;;5.60;5.00;;;8.50;89.50;;;;;;10443504;28;20248;-85
2022/02/13 17:56:24;;;;;;;8.90;7.10;;;8.60;87.70;;;;;;10403718;28;20225;-84
2022/02/13 18:01:27;;;;;;;9.37;6.80;;;8.60;88.30;;;;;;10414352;28;20637;-85
2022/02/13 18:06:33;;;;;;;6.67;5.97;;;8.60;87.90;;;;;;10416421;28;20293;-85
2022/02/13 18:11:36;;;;;;;6.63;5.90;;;8.50;89.80;;;;;;10412342;28;20256;-84
2022/02/13 18:16:38;;;;;;;12.30;7.13;;;8.50;88.10;;;;;;10409531;28;20312;-83
2022/02/13 18:21:41;;;;;;;5.50;5.10;;;8.40;88.20;;;;;;10410243;28;20240;-84
2022/02/13 18:26:43;;;;;;;6.83;4.87;;;8.30;88.00;;;;;;10410096;28;20201;-85
2022/02/13 18:31:46;;;;;;;5.37;4.60;;;8.20;89.10;;;;;;10429613;28;20264;-84
2022/02/13 18:36:50;;;;;;;6.40;5.30;;;8.10;88.60;;;;;;10407497;28;20690;-84
2022/02/13 18:41:54;;;;;;;5.13;4.63;;;7.90;89.70;;;;;;10405459;28;20690;-84
2022/02/13 18:46:56;;;;;;;5.77;4.40;;;7.80;89.70;;;;;;10461810;28;20205;-84
2022/02/13 18:51:59;;;;;;;8.10;6.67;;;7.70;89.70;;;;;;10405138;28;20226;-85
2022/02/13 18:57:02;;;;;;;9.00;7.40;;;7.60;90.20;;;;;;10390571;28;20272;-84
2022/02/13 19:02:06;;;;;;;12.33;9.30;;;7.40;90.50;;;;;;10399428;28;20611;-86
2022/02/13 19:07:09;;;;;;;11.80;10.10;;;7.30;90.90;;;;;;10416697;28;20259;-87
2022/02/13 19:12:11;;;;;;;10.53;9.43;;;7.40;90.70;;;;;;10419073;28;20240;-84
2022/02/13 19:17:14;;;;;;;8.30;6.43;;;7.30;91.70;;;;;;10410811;28;20221;-84
2022/02/13 19:22:17;;;;;;;6.67;6.07;;;7.30;90.90;;;;;;10436285;28;20233;-86
2022/02/13 19:32:40;;;;;;;8.27;6.10;;;7.30;90.90;;;;;;10413137;28;20217;-87
2022/02/13 19:37:45;;;;;;;6.67;6.03;;;7.30;91.30;;;;;;10440206;28;20266;-84
2022/02/13 19:42:47;;;;;;;8.87;5.53;;;7.40;90.60;;;;;;10430428;28;20226;-83
2022/02/13 19:47:49;;;;;;;6.07;5.47;;;7.40;90.80;;;;;;10407022;28;20402;-85
2022/02/13 19:52:53;;;;;;;6.17;5.67;;;7.40;90.50;;;;;;10415153;28;20287;-85
2022/02/13 19:57:56;;;;;;;5.50;5.00;;;7.30;90.90;;;;;;10415561;28;20205;-85
2022/02/13 20:02:58;;;;;;;6.77;6.10;;;7.30;91.60;;;;;;10432593;28;20229;-85
2022/02/13 20:08:01;;;;;;;8.10;7.10;;;7.20;92.00;;;;;;10433643;28;20429;-85
2022/02/13 20:13:04;;;;;;;8.83;7.90;;;7.20;92.20;;;;;;10421571;28;20701;-84
2022/02/13 20:18:06;;;;;;;8.30;7.50;;;7.10;91.90;;;;;;10420723;28;20229;-84
2022/02/13 20:23:09;;;;;;;10.37;7.17;;;7.00;92.00;;;;;;10450998;28;20232;-85
2022/02/13 20:28:11;;;;;;;8.10;7.30;;;6.90;92.90;;;;;;10413937;28;20205;-85
2022/02/13 20:33:15;;;;;;;11.80;8.90;;;6.90;93.10;;;;;;10424240;28;20228;-85
2022/02/13 20:38:18;;;;;;;9.90;8.90;;;6.80;92.20;;;;;;10422262;28;20225;-84
2022/02/13 20:43:21;;;;;;;10.33;8.17;;;6.80;93.10;;;;;;10435306;28;20239;-85
2022/02/13 20:48:23;;;;;;;11.97;7.80;;;6.70;93.00;;;;;;10392187;28;20570;-85
2022/02/13 20:53:27;;;;;;;8.13;6.50;;;6.70;93.70;;;;;;10410805;28;20224;-84
2022/02/13 20:58:30;;;;;;;6.67;6.07;;;6.70;93.10;;;;;;10444955;28;20197;-84
2022/02/13 21:03:35;;;;;;;7.57;6.20;;;6.70;92.50;;;;;;10407627;28;20209;-83
2022/02/13 21:08:39;;;;;;;7.80;6.93;;;6.50;92.70;;;;;;10444308;28;20201;-83
2022/02/13 21:13:41;;;;;;;6.73;5.90;;;6.40;91.90;;;;;;10405032;28;20237;-83
2022/02/13 21:18:44;;;;;;;6.60;5.57;;;6.30;92.50;;;;;;10382592;28;20233;-84
2022/02/13 21:23:48;;;;;;;8.03;6.23;;;6.20;91.90;;;;;;10403530;28;20218;-83
2022/02/13 21:28:50;;;;;;;7.10;5.57;;;6.20;92.00;;;;;;10380107;28;20585;-83
2022/02/13 21:33:52;;;;;;;9.47;6.00;;;6.10;92.80;;;;;;10415784;28;20616;-84
2022/02/13 21:38:56;;;;;;;5.90;5.40;;;6.10;92.40;;;;;;10426845;28;20206;-83
2022/02/13 21:43:58;;;;;;;6.53;5.50;;;6.20;92.60;;;;;;10397495;28;20317;-84
2022/02/13 21:49:00;;;;;;;5.63;5.13;;;6.20;93.00;;;;;;10418994;28;20194;-83
2022/02/13 21:54:04;;;;;;;6.70;4.77;;;6.30;92.70;;;;;;10407147;28;20608;-85
2022/02/13 21:59:06;;;;;;;5.37;4.87;;;6.40;92.00;;;;;;10425556;28;20233;-86
2022/02/13 22:04:08;;;;;;;5.07;4.67;;;6.60;92.30;;;;;;10409508;28;20648;-84
2022/02/13 22:09:11;;;;;;;5.30;4.43;;;6.70;91.50;;;;;;10421912;28;20202;-85
2022/02/13 22:14:14;;;;;;;4.50;4.20;;;6.90;91.70;;;;;;10423473;28;20221;-86
2022/02/13 22:19:16;;;;;;;6.70;5.33;;;7.00;91.10;;;;;;10411831;28;20205;-84
2022/02/13 22:24:19;;;;;;;4.50;4.13;;;7.10;91.40;;;;;;10404841;28;20237;-84
2022/02/13 22:29:22;;;;;;;5.13;4.67;;;7.10;91.00;;;;;;10391779;28;20206;-84
2022/02/13 22:34:24;;;;;;;5.87;4.70;;;7.30;90.80;;;;;;10390579;28;20351;-84
2022/02/13 22:39:27;;;;;;;5.03;4.60;;;7.30;90.90;;;;;;10409478;28;20197;-85
2022/02/13 22:44:30;;;;;;;4.37;3.93;;;7.40;91.10;;;;;;10429972;28;20271;-85
2022/02/13 22:49:34;;;;;;;5.73;4.97;;;7.40;90.60;;;;;;10407769;28;20201;-85
2022/02/13 22:54:39;;;;;;;5.23;4.70;;;7.50;90.70;;;;;;10418983;28;20588;-85
2022/02/13 22:59:41;;;;;;;4.30;4.00;;;7.50;91.40;;;;;;10424742;28;20201;-85
2022/02/13 23:15:25;;;;;;;4.93;4.50;;;7.60;89.50;;;;;;10413051;28;20283;-84
2022/02/13 23:20:29;;;;;;;6.13;4.60;;;7.60;90.20;;;;;;10411153;28;20233;-85
2022/02/13 23:25:35;;;;;;;4.40;4.00;;;7.60;89.20;;;;;;10411622;28;20209;-85
2022/02/13 23:30:38;;;;;;;4.40;4.10;;;7.60;91.10;;;;;;10398930;28;20713;-85
2022/02/13 23:35:40;;;;;;;4.93;4.47;;;7.70;88.70;;;;;;10397193;28;20340;-85
2022/02/13 23:40:44;;;;;;;5.23;4.67;;;7.70;90.80;;;;;;10416357;28;20602;-85
2022/02/13 23:45:47;;;;;;;4.50;4.10;;;7.70;89.10;;;;;;10421659;28;20216;-85
2022/02/13 23:50:49;;;;;;;4.83;4.27;;;7.70;90.40;;;;;;10413818;28;20256;-85
2022/02/13 23:55:53;;;;;;;4.83;4.17;;;7.70;90.40;;;;;;10412803;28;20214;-86
